sensor_id;sensor_type;location;lat;lon;timestamp;P1;durP1;ratioP1;P2;durP2;ratioP2
28802;SDS011;15949;55.656;37.422;2023-01-30T00:01:02;18.42;;;10.05;;
28802;SDS011;15949;55.656;37.422;2023-01-30T00:06:10;18.13;;;10.18;;
28802;SDS011;15949;55.656;37.422;2023-01-30T00:11:17;18.00;;;10.50;;
28802;SDS011;15949;55.656;37.422;2023-01-30T00:16:26;17.38;;;9.82;;
28802;SDS011;15949;55.656;37.422;2023-01-30T00:21:31;17.90;;;10.18;;
28802;SDS011;15949;55.656;37.422;2023-01-30T00:26:37;16.10;;;9.85;;
28802;SDS011;15949;55.656;37.422;2023-01-30T00:31:43;18.23;;;10.45;;
28802;SDS011;15949;55.656;37.422;2023-01-30T00:36:48;17.45;;;10.68;;
28802;SDS011;15949;55.656;37.422;2023-01-30T00:41:54;18.38;;;11.07;;
28802;SDS011;15949;55.656;37.422;2023-01-30T00:47:18;21.23;;;10.80;;
28802;SDS011;15949;55.656;37.422;2023-01-30T00:52:25;20.95;;;10.38;;
28802;SDS011;15949;55.656;37.422;2023-01-30T00:57:31;25.42;;;11.48;;
28802;SDS011;15949;55.656;37.422;2023-01-30T01:02:36;20.27;;;10.43;;
28802;SDS011;15949;55.656;37.422;2023-01-30T01:07:42;16.58;;;11.00;;
28802;SDS011;15949;55.656;37.422;2023-01-30T01:12:48;19.52;;;11.20;;
28802;SDS011;15949;55.656;37.422;2023-01-30T01:17:56;17.73;;;10.77;;
28802;SDS011;15949;55.656;37.422;2023-01-30T01:23:02;18.85;;;11.02;;
28802;SDS011;15949;55.656;37.422;2023-01-30T01:28:07;17.08;;;11.02;;
28802;SDS011;15949;55.656;37.422;2023-01-30T01:33:13;21.85;;;10.93;;
28802;SDS011;15949;55.656;37.422;2023-01-30T01:38:19;18.58;;;10.85;;
28802;SDS011;15949;55.656;37.422;2023-01-30T01:43:24;20.15;;;11.35;;
28802;SDS011;15949;55.656;37.422;2023-01-30T01:48:31;22.25;;;11.52;;
28802;SDS011;15949;55.656;37.422;2023-01-30T01:54:01;18.80;;;11.15;;
28802;SDS011;15949;55.656;37.422;2023-01-30T02:04:35;19.88;;;11.52;;
28802;SDS011;15949;55.656;37.422;2023-01-30T02:10:00;19.70;;;11.40;;
28802;SDS011;15949;55.656;37.422;2023-01-30T02:15:06;19.10;;;11.40;;
28802;SDS011;15949;55.656;37.422;2023-01-30T02:20:26;20.05;;;10.82;;
28802;SDS011;15949;55.656;37.422;2023-01-30T02:31:31;18.55;;;11.38;;
28802;SDS011;15949;55.656;37.422;2023-01-30T02:37:05;17.08;;;10.70;;
28802;SDS011;15949;55.656;37.422;2023-01-30T02:43:05;16.95;;;10.52;;
28802;SDS011;15949;55.656;37.422;2023-01-30T02:48:06;17.38;;;10.80;;
28802;SDS011;15949;55.656;37.422;2023-01-30T02:53:17;18.17;;;11.05;;
28802;SDS011;15949;55.656;37.422;2023-01-30T02:58:23;17.02;;;11.00;;
28802;SDS011;15949;55.656;37.422;2023-01-30T03:09:21;17.55;;;10.98;;
28802;SDS011;15949;55.656;37.422;2023-01-30T03:14:31;17.15;;;10.85;;
28802;SDS011;15949;55.656;37.422;2023-01-30T03:20:03;19.05;;;11.30;;
28802;SDS011;15949;55.656;37.422;2023-01-30T03:25:10;19.63;;;11.57;;
28802;SDS011;15949;55.656;37.422;2023-01-30T03:30:22;18.58;;;11.23;;
28802;SDS011;15949;55.656;37.422;2023-01-30T03:35:29;17.92;;;11.20;;
28802;SDS011;15949;55.656;37.422;2023-01-30T03:40:35;15.95;;;10.73;;
28802;SDS011;15949;55.656;37.422;2023-01-30T03:45:41;18.15;;;11.05;;
28802;SDS011;15949;55.656;37.422;2023-01-30T03:50:47;18.73;;;11.25;;
28802;SDS011;15949;55.656;37.422;2023-01-30T03:55:53;17.58;;;10.73;;
28802;SDS011;15949;55.656;37.422;2023-01-30T04:00:59;17.95;;;11.25;;
28802;SDS011;15949;55.656;37.422;2023-01-30T04:06:05;16.80;;;11.15;;
28802;SDS011;15949;55.656;37.422;2023-01-30T04:11:10;17.35;;;10.68;;
28802;SDS011;15949;55.656;37.422;2023-01-30T04:16:17;17.02;;;11.43;;
28802;SDS011;15949;55.656;37.422;2023-01-30T04:21:26;18.60;;;10.85;;
28802;SDS011;15949;55.656;37.422;2023-01-30T04:26:32;18.38;;;10.73;;
28802;SDS011;15949;55.656;37.422;2023-01-30T04:31:38;16.30;;;10.93;;
28802;SDS011;15949;55.656;37.422;2023-01-30T04:36:43;15.75;;;10.52;;
28802;SDS011;15949;55.656;37.422;2023-01-30T04:41:49;15.98;;;9.88;;
28802;SDS011;15949;55.656;37.422;2023-01-30T04:46:54;17.65;;;10.00;;
28802;SDS011;15949;55.656;37.422;2023-01-30T04:52:00;18.05;;;11.02;;
28802;SDS011;15949;55.656;37.422;2023-01-30T04:57:06;17.33;;;9.98;;
28802;SDS011;15949;55.656;37.422;2023-01-30T05:02:11;14.38;;;10.23;;
28802;SDS011;15949;55.656;37.422;2023-01-30T05:07:17;16.60;;;10.48;;
28802;SDS011;15949;55.656;37.422;2023-01-30T05:12:22;15.25;;;10.00;;
28802;SDS011;15949;55.656;37.422;2023-01-30T05:17:28;15.88;;;10.52;;
28802;SDS011;15949;55.656;37.422;2023-01-30T05:22:34;16.45;;;10.25;;
28802;SDS011;15949;55.656;37.422;2023-01-30T05:27:39;16.70;;;10.70;;
28802;SDS011;15949;55.656;37.422;2023-01-30T05:32:45;17.40;;;10.73;;
28802;SDS011;15949;55.656;37.422;2023-01-30T05:37:51;16.83;;;10.77;;
28802;SDS011;15949;55.656;37.422;2023-01-30T05:42:56;17.15;;;10.27;;
28802;SDS011;15949;55.656;37.422;2023-01-30T05:48:02;16.08;;;10.10;;
28802;SDS011;15949;55.656;37.422;2023-01-30T05:53:08;17.58;;;11.02;;
28802;SDS011;15949;55.656;37.422;2023-01-30T05:58:13;16.77;;;10.95;;
28802;SDS011;15949;55.656;37.422;2023-01-30T06:03:19;17.05;;;10.60;;
28802;SDS011;15949;55.656;37.422;2023-01-30T06:08:25;15.00;;;10.13;;
28802;SDS011;15949;55.656;37.422;2023-01-30T06:13:30;16.60;;;10.23;;
28802;SDS011;15949;55.656;37.422;2023-01-30T06:18:36;16.80;;;10.57;;
28802;SDS011;15949;55.656;37.422;2023-01-30T06:23:42;17.05;;;10.65;;
28802;SDS011;15949;55.656;37.422;2023-01-30T06:28:48;16.58;;;11.10;;
28802;SDS011;15949;55.656;37.422;2023-01-30T06:33:54;20.55;;;11.80;;
28802;SDS011;15949;55.656;37.422;2023-01-30T06:38:59;18.35;;;11.35;;
28802;SDS011;15949;55.656;37.422;2023-01-30T06:44:05;15.57;;;10.43;;
28802;SDS011;15949;55.656;37.422;2023-01-30T06:49:10;20.30;;;11.45;;
28802;SDS011;15949;55.656;37.422;2023-01-30T06:54:16;20.95;;;11.27;;
28802;SDS011;15949;55.656;37.422;2023-01-30T06:59:22;19.33;;;11.30;;
28802;SDS011;15949;55.656;37.422;2023-01-30T07:04:27;17.50;;;10.50;;
28802;SDS011;15949;55.656;37.422;2023-01-30T07:09:33;16.63;;;10.15;;
28802;SDS011;15949;55.656;37.422;2023-01-30T07:14:39;15.82;;;9.95;;
28802;SDS011;15949;55.656;37.422;2023-01-30T07:19:45;16.65;;;10.40;;
28802;SDS011;15949;55.656;37.422;2023-01-30T07:24:51;16.48;;;10.40;;
28802;SDS011;15949;55.656;37.422;2023-01-30T07:29:57;18.58;;;10.65;;
28802;SDS011;15949;55.656;37.422;2023-01-30T07:35:03;17.52;;;10.63;;
28802;SDS011;15949;55.656;37.422;2023-01-30T07:40:09;17.00;;;10.20;;
28802;SDS011;15949;55.656;37.422;2023-01-30T07:45:15;20.67;;;11.98;;
28802;SDS011;15949;55.656;37.422;2023-01-30T07:50:21;16.23;;;10.68;;
28802;SDS011;15949;55.656;37.422;2023-01-30T07:55:27;16.38;;;10.52;;
28802;SDS011;15949;55.656;37.422;2023-01-30T08:00:33;19.10;;;10.68;;
28802;SDS011;15949;55.656;37.422;2023-01-30T08:05:39;17.35;;;10.45;;
28802;SDS011;15949;55.656;37.422;2023-01-30T08:10:47;18.83;;;10.38;;
28802;SDS011;15949;55.656;37.422;2023-01-30T08:15:53;16.65;;;10.23;;
28802;SDS011;15949;55.656;37.422;2023-01-30T08:20:59;17.45;;;10.65;;
28802;SDS011;15949;55.656;37.422;2023-01-30T08:26:06;16.33;;;10.52;;
28802;SDS011;15949;55.656;37.422;2023-01-30T08:31:12;16.48;;;10.43;;
28802;SDS011;15949;55.656;37.422;2023-01-30T08:36:19;18.95;;;11.27;;
28802;SDS011;15949;55.656;37.422;2023-01-30T08:41:25;15.75;;;10.43;;
28802;SDS011;15949;55.656;37.422;2023-01-30T08:46:32;19.05;;;10.73;;
28802;SDS011;15949;55.656;37.422;2023-01-30T08:51:38;17.33;;;9.88;;
28802;SDS011;15949;55.656;37.422;2023-01-30T08:56:43;20.60;;;10.73;;
28802;SDS011;15949;55.656;37.422;2023-01-30T09:01:49;21.35;;;9.85;;
28802;SDS011;15949;55.656;37.422;2023-01-30T09:06:54;18.98;;;10.65;;
28802;SDS011;15949;55.656;37.422;2023-01-30T09:12:00;18.73;;;10.45;;
28802;SDS011;15949;55.656;37.422;2023-01-30T09:17:06;17.33;;;10.68;;
28802;SDS011;15949;55.656;37.422;2023-01-30T09:22:11;17.77;;;10.07;;
28802;SDS011;15949;55.656;37.422;2023-01-30T09:27:17;15.43;;;10.07;;
28802;SDS011;15949;55.656;37.422;2023-01-30T09:32:23;20.13;;;11.13;;
28802;SDS011;15949;55.656;37.422;2023-01-30T09:37:28;24.15;;;11.65;;
28802;SDS011;15949;55.656;37.422;2023-01-30T09:48:02;19.55;;;10.52;;
28802;SDS011;15949;55.656;37.422;2023-01-30T10:03:53;19.20;;;11.43;;
28802;SDS011;15949;55.656;37.422;2023-01-30T10:09:10;22.45;;;11.30;;
28802;SDS011;15949;55.656;37.422;2023-01-30T10:19:42;19.00;;;11.35;;
28802;SDS011;15949;55.656;37.422;2023-01-30T10:30:32;19.63;;;11.02;;
28802;SDS011;15949;55.656;37.422;2023-01-30T10:35:38;18.27;;;11.85;;
28802;SDS011;15949;55.656;37.422;2023-01-30T10:57:26;17.77;;;10.23;;
28802;SDS011;15949;55.656;37.422;2023-01-30T11:07:57;18.17;;;10.85;;
28802;SDS011;15949;55.656;37.422;2023-01-30T11:13:13;19.90;;;11.52;;
28802;SDS011;15949;55.656;37.422;2023-01-30T11:18:23;19.40;;;10.40;;
28802;SDS011;15949;55.656;37.422;2023-01-30T11:23:34;19.27;;;11.65;;
28802;SDS011;15949;55.656;37.422;2023-01-30T11:28:42;18.80;;;11.63;;
28802;SDS011;15949;55.656;37.422;2023-01-30T11:34:04;26.48;;;15.00;;
28802;SDS011;15949;55.656;37.422;2023-01-30T11:44:34;19.85;;;11.25;;
28802;SDS011;15949;55.656;37.422;2023-01-30T11:49:42;31.90;;;17.80;;
28802;SDS011;15949;55.656;37.422;2023-01-30T11:54:50;32.17;;;18.63;;
28802;SDS011;15949;55.656;37.422;2023-01-30T11:59:58;21.00;;;11.23;;
28802;SDS011;15949;55.656;37.422;2023-01-30T12:05:06;23.42;;;11.77;;
28802;SDS011;15949;55.656;37.422;2023-01-30T12:15:30;17.35;;;11.45;;
28802;SDS011;15949;55.656;37.422;2023-01-30T12:21:22;30.38;;;16.75;;
28802;SDS011;15949;55.656;37.422;2023-01-30T12:26:23;29.55;;;15.85;;
28802;SDS011;15949;55.656;37.422;2023-01-30T12:31:38;27.52;;;14.85;;
28802;SDS011;15949;55.656;37.422;2023-01-30T12:36:55;22.95;;;13.77;;
28802;SDS011;15949;55.656;37.422;2023-01-30T13:03:31;18.17;;;10.07;;
28802;SDS011;15949;55.656;37.422;2023-01-30T13:14:30;14.63;;;9.65;;
28802;SDS011;15949;55.656;37.422;2023-01-30T13:30:32;16.52;;;10.00;;
28802;SDS011;15949;55.656;37.422;2023-01-30T13:35:45;13.95;;;9.35;;
28802;SDS011;15949;55.656;37.422;2023-01-30T13:40:56;18.52;;;9.75;;
28802;SDS011;15949;55.656;37.422;2023-01-30T13:46:05;13.23;;;8.40;;
28802;SDS011;15949;55.656;37.422;2023-01-30T14:02:15;12.98;;;8.10;;
28802;SDS011;15949;55.656;37.422;2023-01-30T14:12:33;12.15;;;7.85;;
28802;SDS011;15949;55.656;37.422;2023-01-30T14:33:30;9.05;;;6.53;;
28802;SDS011;15949;55.656;37.422;2023-01-30T14:38:38;10.23;;;6.60;;
28802;SDS011;15949;55.656;37.422;2023-01-30T14:43:47;10.50;;;5.93;;
28802;SDS011;15949;55.656;37.422;2023-01-30T14:48:55;9.20;;;5.78;;
28802;SDS011;15949;55.656;37.422;2023-01-30T14:59:23;7.38;;;5.32;;
28802;SDS011;15949;55.656;37.422;2023-01-30T15:04:30;7.10;;;4.75;;
28802;SDS011;15949;55.656;37.422;2023-01-30T15:09:43;6.82;;;4.95;;
28802;SDS011;15949;55.656;37.422;2023-01-30T15:35:46;12.33;;;5.93;;
28802;SDS011;15949;55.656;37.422;2023-01-30T15:40:53;10.13;;;5.82;;
28802;SDS011;15949;55.656;37.422;2023-01-30T15:51:17;10.20;;;6.60;;
28802;SDS011;15949;55.656;37.422;2023-01-30T15:56:31;8.15;;;5.70;;
28802;SDS011;15949;55.656;37.422;2023-01-30T16:01:37;7.53;;;5.15;;
28802;SDS011;15949;55.656;37.422;2023-01-30T16:06:42;6.38;;;4.93;;
28802;SDS011;15949;55.656;37.422;2023-01-30T16:11:48;7.75;;;4.95;;
28802;SDS011;15949;55.656;37.422;2023-01-30T16:16:59;6.60;;;4.57;;
28802;SDS011;15949;55.656;37.422;2023-01-30T16:22:14;7.55;;;4.90;;
28802;SDS011;15949;55.656;37.422;2023-01-30T16:27:29;6.97;;;4.57;;
28802;SDS011;15949;55.656;37.422;2023-01-30T16:32:36;6.30;;;4.50;;
28802;SDS011;15949;55.656;37.422;2023-01-30T16:37:43;5.80;;;3.95;;
28802;SDS011;15949;55.656;37.422;2023-01-30T16:42:55;7.95;;;4.30;;
28802;SDS011;15949;55.656;37.422;2023-01-30T16:48:27;5.90;;;3.97;;
28802;SDS011;15949;55.656;37.422;2023-01-30T16:53:35;5.88;;;3.78;;
28802;SDS011;15949;55.656;37.422;2023-01-30T16:58:43;9.32;;;4.03;;
28802;SDS011;15949;55.656;37.422;2023-01-30T17:03:57;7.35;;;3.45;;
28802;SDS011;15949;55.656;37.422;2023-01-30T17:09:08;5.50;;;3.70;;
28802;SDS011;15949;55.656;37.422;2023-01-30T17:14:37;6.00;;;4.05;;
28802;SDS011;15949;55.656;37.422;2023-01-30T17:19:44;7.03;;;3.85;;
28802;SDS011;15949;55.656;37.422;2023-01-30T17:24:51;6.45;;;3.58;;
28802;SDS011;15949;55.656;37.422;2023-01-30T17:30:07;6.40;;;3.60;;
28802;SDS011;15949;55.656;37.422;2023-01-30T17:35:18;4.47;;;3.30;;
28802;SDS011;15949;55.656;37.422;2023-01-30T17:40:27;6.68;;;3.75;;
28802;SDS011;15949;55.656;37.422;2023-01-30T17:45:36;5.30;;;3.90;;
28802;SDS011;15949;55.656;37.422;2023-01-30T17:50:42;8.93;;;5.57;;
28802;SDS011;15949;55.656;37.422;2023-01-30T17:55:48;10.93;;;7.15;;
28802;SDS011;15949;55.656;37.422;2023-01-30T18:00:54;5.63;;;3.80;;
28802;SDS011;15949;55.656;37.422;2023-01-30T18:05:59;6.13;;;3.70;;
28802;SDS011;15949;55.656;37.422;2023-01-30T18:11:05;7.63;;;3.92;;
28802;SDS011;15949;55.656;37.422;2023-01-30T18:16:18;6.90;;;4.22;;
28802;SDS011;15949;55.656;37.422;2023-01-30T18:21:27;6.72;;;4.10;;
28802;SDS011;15949;55.656;37.422;2023-01-30T18:26:33;6.00;;;4.10;;
28802;SDS011;15949;55.656;37.422;2023-01-30T18:31:39;5.57;;;3.80;;
28802;SDS011;15949;55.656;37.422;2023-01-30T18:36:45;6.57;;;4.20;;
28802;SDS011;15949;55.656;37.422;2023-01-30T18:41:51;5.40;;;3.95;;
28802;SDS011;15949;55.656;37.422;2023-01-30T18:46:56;7.07;;;3.90;;
28802;SDS011;15949;55.656;37.422;2023-01-30T18:52:02;6.95;;;4.00;;
28802;SDS011;15949;55.656;37.422;2023-01-30T18:57:08;7.40;;;4.03;;
28802;SDS011;15949;55.656;37.422;2023-01-30T19:02:14;6.80;;;3.80;;
28802;SDS011;15949;55.656;37.422;2023-01-30T19:07:19;6.57;;;4.15;;
28802;SDS011;15949;55.656;37.422;2023-01-30T19:12:25;11.65;;;7.20;;
28802;SDS011;15949;55.656;37.422;2023-01-30T19:17:49;5.97;;;3.85;;
28802;SDS011;15949;55.656;37.422;2023-01-30T19:22:55;7.78;;;4.35;;
28802;SDS011;15949;55.656;37.422;2023-01-30T19:28:00;5.38;;;4.00;;
28802;SDS011;15949;55.656;37.422;2023-01-30T19:33:06;6.85;;;4.40;;
28802;SDS011;15949;55.656;37.422;2023-01-30T19:38:11;9.23;;;4.78;;
28802;SDS011;15949;55.656;37.422;2023-01-30T19:43:17;6.72;;;4.10;;
28802;SDS011;15949;55.656;37.422;2023-01-30T19:48:23;6.97;;;4.40;;
28802;SDS011;15949;55.656;37.422;2023-01-30T19:53:29;6.50;;;4.40;;
28802;SDS011;15949;55.656;37.422;2023-01-30T19:58:38;6.60;;;4.15;;
28802;SDS011;15949;55.656;37.422;2023-01-30T20:03:44;6.75;;;4.40;;
28802;SDS011;15949;55.656;37.422;2023-01-30T20:09:24;6.97;;;4.60;;
28802;SDS011;15949;55.656;37.422;2023-01-30T20:14:23;7.07;;;4.88;;
28802;SDS011;15949;55.656;37.422;2023-01-30T20:19:28;7.65;;;4.28;;
28802;SDS011;15949;55.656;37.422;2023-01-30T20:24:34;6.30;;;4.07;;
28802;SDS011;15949;55.656;37.422;2023-01-30T20:29:40;8.63;;;4.32;;
28802;SDS011;15949;55.656;37.422;2023-01-30T20:34:45;7.50;;;4.55;;
28802;SDS011;15949;55.656;37.422;2023-01-30T20:39:51;7.10;;;4.72;;
28802;SDS011;15949;55.656;37.422;2023-01-30T20:44:57;7.70;;;5.25;;
28802;SDS011;15949;55.656;37.422;2023-01-30T20:50:02;7.35;;;4.68;;
28802;SDS011;15949;55.656;37.422;2023-01-30T20:55:08;6.90;;;5.43;;
28802;SDS011;15949;55.656;37.422;2023-01-30T21:00:14;7.93;;;5.35;;
28802;SDS011;15949;55.656;37.422;2023-01-30T21:05:20;9.32;;;5.20;;
28802;SDS011;15949;55.656;37.422;2023-01-30T21:10:25;11.63;;;6.75;;
28802;SDS011;15949;55.656;37.422;2023-01-30T21:15:31;8.10;;;5.50;;
28802;SDS011;15949;55.656;37.422;2023-01-30T21:20:37;7.47;;;4.70;;
28802;SDS011;15949;55.656;37.422;2023-01-30T21:25:43;7.75;;;5.07;;
28802;SDS011;15949;55.656;37.422;2023-01-30T21:30:48;7.85;;;4.72;;
28802;SDS011;15949;55.656;37.422;2023-01-30T21:35:54;8.60;;;4.80;;
28802;SDS011;15949;55.656;37.422;2023-01-30T21:41:03;7.20;;;4.78;;
28802;SDS011;15949;55.656;37.422;2023-01-30T21:46:28;6.15;;;4.40;;
28802;SDS011;15949;55.656;37.422;2023-01-30T21:51:35;5.95;;;4.45;;
28802;SDS011;15949;55.656;37.422;2023-01-30T21:56:41;8.25;;;4.85;;
28802;SDS011;15949;55.656;37.422;2023-01-30T22:01:47;8.82;;;4.55;;
28802;SDS011;15949;55.656;37.422;2023-01-30T22:06:53;6.25;;;4.40;;
28802;SDS011;15949;55.656;37.422;2023-01-30T22:11:58;6.90;;;4.70;;
28802;SDS011;15949;55.656;37.422;2023-01-30T22:17:04;6.70;;;4.78;;
28802;SDS011;15949;55.656;37.422;2023-01-30T22:22:10;7.38;;;4.57;;
28802;SDS011;15949;55.656;37.422;2023-01-30T22:27:15;7.50;;;4.90;;
28802;SDS011;15949;55.656;37.422;2023-01-30T22:32:21;8.60;;;4.97;;
28802;SDS011;15949;55.656;37.422;2023-01-30T22:37:27;8.40;;;4.72;;
28802;SDS011;15949;55.656;37.422;2023-01-30T22:42:32;7.10;;;4.93;;
28802;SDS011;15949;55.656;37.422;2023-01-30T22:47:38;8.57;;;4.85;;
28802;SDS011;15949;55.656;37.422;2023-01-30T22:52:43;8.50;;;5.53;;
28802;SDS011;15949;55.656;37.422;2023-01-30T22:57:49;8.15;;;5.63;;
28802;SDS011;15949;55.656;37.422;2023-01-30T23:02:55;7.68;;;5.57;;
28802;SDS011;15949;55.656;37.422;2023-01-30T23:08:00;7.70;;;5.43;;
28802;SDS011;15949;55.656;37.422;2023-01-30T23:13:06;9.77;;;5.63;;
28802;SDS011;15949;55.656;37.422;2023-01-30T23:18:12;8.45;;;6.07;;
28802;SDS011;15949;55.656;37.422;2023-01-30T23:23:37;8.95;;;5.65;;
28802;SDS011;15949;55.656;37.422;2023-01-30T23:28:43;9.32;;;6.20;;
28802;SDS011;15949;55.656;37.422;2023-01-30T23:33:55;10.75;;;6.32;;
28802;SDS011;15949;55.656;37.422;2023-01-30T23:39:03;8.27;;;5.95;;
28802;SDS011;15949;55.656;37.422;2023-01-30T23:44:09;7.65;;;5.88;;
28802;SDS011;15949;55.656;37.422;2023-01-30T23:49:15;7.45;;;6.03;;
28802;SDS011;15949;55.656;37.422;2023-01-30T23:54:21;9.63;;;6.57;;
28802;SDS011;15949;55.656;37.422;2023-01-30T23:59:26;11.40;;;6.65;;
